sensor_id;sensor_type;location;lat;lon;timestamp;temperature;humidity
23323;DHT22;11833;52.554;13.554;2022-12-29T01:02:50;8.10;99.90
23323;DHT22;11833;52.554;13.554;2022-12-29T01:05:16;8.20;99.90
23323;DHT22;11833;52.554;13.554;2022-12-29T01:07:42;8.10;99.90
23323;DHT22;11833;52.554;13.554;2022-12-29T01:10:08;8.10;99.90
23323;DHT22;11833;52.554;13.554;2022-12-29T01:12:36;8.20;99.90
23323;DHT22;11833;52.554;13.554;2022-12-29T01:15:12;8.20;99.90
23323;DHT22;11833;52.554;13.554;2022-12-29T01:17:39;8.10;99.90
23323;DHT22;11833;52.554;13.554;2022-12-29T01:20:05;8.10;99.90
23323;DHT22;11833;52.554;13.554;2022-12-29T01:22:31;8.10;99.90
23323;DHT22;11833;52.554;13.554;2022-12-29T01:24:57;8.10;99.90
23323;DHT22;11833;52.554;13.554;2022-12-29T01:27:23;8.10;99.90
23323;DHT22;11833;52.554;13.554;2022-12-29T01:29:48;8.10;99.90
23323;DHT22;11833;52.554;13.554;2022-12-29T01:32:14;8.00;99.90
23323;DHT22;11833;52.554;13.554;2022-12-29T01:34:40;8.00;99.90
23323;DHT22;11833;52.554;13.554;2022-12-29T01:37:05;8.10;99.90
23323;DHT22;11833;52.554;13.554;2022-12-29T01:39:31;8.10;99.90
23323;DHT22;11833;52.554;13.554;2022-12-29T01:41:57;8.10;99.90
23323;DHT22;11833;52.554;13.554;2022-12-29T01:47:47;8.10;99.90
23323;DHT22;11833;52.554;13.554;2022-12-29T01:50:30;8.10;99.90
23323;DHT22;11833;52.554;13.554;2022-12-29T01:53:04;8.10;99.90
23323;DHT22;11833;52.554;13.554;2022-12-29T01:55:39;8.00;99.90
23323;DHT22;11833;52.554;13.554;2022-12-29T01:58:07;8.00;99.90
23323;DHT22;11833;52.554;13.554;2022-12-29T02:00:34;8.00;99.90
23323;DHT22;11833;52.554;13.554;2022-12-29T02:03:00;8.20;99.90
23323;DHT22;11833;52.554;13.554;2022-12-29T02:05:33;8.20;99.90
23323;DHT22;11833;52.554;13.554;2022-12-29T02:08:02;8.10;99.90
23323;DHT22;11833;52.554;13.554;2022-12-29T02:10:30;8.10;99.90
23323;DHT22;11833;52.554;13.554;2022-12-29T02:12:57;8.00;99.90
23323;DHT22;11833;52.554;13.554;2022-12-29T02:15:35;8.10;99.90
23323;DHT22;11833;52.554;13.554;2022-12-29T02:36:06;7.70;99.90
23323;DHT22;11833;52.554;13.554;2022-12-29T02:41:56;7.70;99.90
23323;DHT22;11833;52.554;13.554;2022-12-29T02:44:39;7.70;99.90
23323;DHT22;11833;52.554;13.554;2022-12-29T02:50:27;7.90;99.90
23323;DHT22;11833;52.554;13.554;2022-12-29T02:53:01;7.90;99.90
23323;DHT22;11833;52.554;13.554;2022-12-29T02:55:33;7.90;99.90
23323;DHT22;11833;52.554;13.554;2022-12-29T02:58:13;8.00;99.90
23323;DHT22;11833;52.554;13.554;2022-12-29T03:12:54;8.10;99.90
23323;DHT22;11833;52.554;13.554;2022-12-29T03:22:08;8.30;99.90
23323;DHT22;11833;52.554;13.554;2022-12-29T03:25:15;8.20;99.90
23323;DHT22;11833;52.554;13.554;2022-12-29T03:27:49;8.20;99.90
23323;DHT22;11833;52.554;13.554;2022-12-29T03:30:17;8.30;99.90
23323;DHT22;11833;52.554;13.554;2022-12-29T03:32:50;8.30;99.90
23323;DHT22;11833;52.554;13.554;2022-12-29T03:35:22;8.40;99.90
23323;DHT22;11833;52.554;13.554;2022-12-29T03:40:49;8.40;99.90
23323;DHT22;11833;52.554;13.554;2022-12-29T03:43:18;8.40;99.90
23323;DHT22;11833;52.554;13.554;2022-12-29T03:45:44;8.40;99.90
23323;DHT22;11833;52.554;13.554;2022-12-29T03:48:10;8.50;99.90
23323;DHT22;11833;52.554;13.554;2022-12-29T03:50:36;8.50;99.90
23323;DHT22;11833;52.554;13.554;2022-12-29T03:53:01;8.50;99.90
23323;DHT22;11833;52.554;13.554;2022-12-29T03:55:27;8.40;99.90
23323;DHT22;11833;52.554;13.554;2022-12-29T03:57:53;8.50;99.90
23323;DHT22;11833;52.554;13.554;2022-12-29T04:00:18;8.60;99.90
23323;DHT22;11833;52.554;13.554;2022-12-29T04:02:44;8.50;99.90
23323;DHT22;11833;52.554;13.554;2022-12-29T04:05:10;8.60;99.90
23323;DHT22;11833;52.554;13.554;2022-12-29T04:07:36;8.60;99.90
23323;DHT22;11833;52.554;13.554;2022-12-29T04:10:02;8.60;99.90
23323;DHT22;11833;52.554;13.554;2022-12-29T04:12:28;8.60;99.90
23323;DHT22;11833;52.554;13.554;2022-12-29T04:14:54;8.60;99.90
23323;DHT22;11833;52.554;13.554;2022-12-29T04:17:19;8.60;99.90
23323;DHT22;11833;52.554;13.554;2022-12-29T04:19:45;8.60;99.90
23323;DHT22;11833;52.554;13.554;2022-12-29T04:22:11;8.70;99.90
23323;DHT22;11833;52.554;13.554;2022-12-29T04:24:37;8.70;99.90
23323;DHT22;11833;52.554;13.554;2022-12-29T04:27:03;8.70;99.90
23323;DHT22;11833;52.554;13.554;2022-12-29T04:29:29;8.70;99.90
23323;DHT22;11833;52.554;13.554;2022-12-29T04:31:54;8.70;99.90
23323;DHT22;11833;52.554;13.554;2022-12-29T04:34:20;8.80;99.90
23323;DHT22;11833;52.554;13.554;2022-12-29T04:36:46;8.80;99.90
23323;DHT22;11833;52.554;13.554;2022-12-29T04:39:12;8.80;99.90
23323;DHT22;11833;52.554;13.554;2022-12-29T04:41:38;8.80;99.90
23323;DHT22;11833;52.554;13.554;2022-12-29T04:44:04;8.80;99.90
23323;DHT22;11833;52.554;13.554;2022-12-29T04:46:29;8.80;99.90
23323;DHT22;11833;52.554;13.554;2022-12-29T04:48:55;8.80;99.90
23323;DHT22;11833;52.554;13.554;2022-12-29T04:51:21;8.80;99.90
23323;DHT22;11833;52.554;13.554;2022-12-29T04:53:47;8.80;99.90
23323;DHT22;11833;52.554;13.554;2022-12-29T04:56:13;8.80;99.90
23323;DHT22;11833;52.554;13.554;2022-12-29T04:58:39;8.80;99.90
23323;DHT22;11833;52.554;13.554;2022-12-29T05:01:05;8.80;99.90
23323;DHT22;11833;52.554;13.554;2022-12-29T05:03:30;8.80;99.90
23323;DHT22;11833;52.554;13.554;2022-12-29T05:05:57;8.80;99.90
23323;DHT22;11833;52.554;13.554;2022-12-29T05:08:23;8.80;99.90
23323;DHT22;11833;52.554;13.554;2022-12-29T05:10:52;8.80;99.90
23323;DHT22;11833;52.554;13.554;2022-12-29T05:13:18;8.80;99.90
23323;DHT22;11833;52.554;13.554;2022-12-29T05:15:51;8.90;99.90
23323;DHT22;11833;52.554;13.554;2022-12-29T05:18:17;8.90;99.90
23323;DHT22;11833;52.554;13.554;2022-12-29T05:20:43;8.90;99.90
23323;DHT22;11833;52.554;13.554;2022-12-29T05:23:10;8.90;99.90
23323;DHT22;11833;52.554;13.554;2022-12-29T05:25:35;8.90;99.90
23323;DHT22;11833;52.554;13.554;2022-12-29T05:28:01;8.90;99.90
23323;DHT22;11833;52.554;13.554;2022-12-29T05:30:27;8.90;99.90
23323;DHT22;11833;52.554;13.554;2022-12-29T05:32:53;8.90;99.90
23323;DHT22;11833;52.554;13.554;2022-12-29T05:35:18;8.90;99.90
23323;DHT22;11833;52.554;13.554;2022-12-29T05:37:44;8.90;99.90
23323;DHT22;11833;52.554;13.554;2022-12-29T05:40:10;9.00;99.90
23323;DHT22;11833;52.554;13.554;2022-12-29T05:42:36;9.00;99.90
23323;DHT22;11833;52.554;13.554;2022-12-29T05:45:02;9.00;99.90
23323;DHT22;11833;52.554;13.554;2022-12-29T05:47:28;9.00;99.90
23323;DHT22;11833;52.554;13.554;2022-12-29T05:49:54;9.00;99.90
23323;DHT22;11833;52.554;13.554;2022-12-29T05:52:20;9.00;99.90
23323;DHT22;11833;52.554;13.554;2022-12-29T05:54:46;9.00;99.90
23323;DHT22;11833;52.554;13.554;2022-12-29T05:57:11;9.10;99.90
23323;DHT22;11833;52.554;13.554;2022-12-29T05:59:37;9.10;99.90
23323;DHT22;11833;52.554;13.554;2022-12-29T06:02:03;9.10;99.90
23323;DHT22;11833;52.554;13.554;2022-12-29T06:04:29;9.20;99.90
23323;DHT22;11833;52.554;13.554;2022-12-29T06:06:54;9.20;99.90
23323;DHT22;11833;52.554;13.554;2022-12-29T06:09:20;9.20;99.90
23323;DHT22;11833;52.554;13.554;2022-12-29T06:11:46;9.20;99.90
23323;DHT22;11833;52.554;13.554;2022-12-29T06:14:11;9.20;99.90
23323;DHT22;11833;52.554;13.554;2022-12-29T06:16:37;9.20;99.90
23323;DHT22;11833;52.554;13.554;2022-12-29T06:19:03;9.20;99.90
23323;DHT22;11833;52.554;13.554;2022-12-29T06:21:29;9.30;99.90
23323;DHT22;11833;52.554;13.554;2022-12-29T06:23:54;9.30;99.90
23323;DHT22;11833;52.554;13.554;2022-12-29T06:26:20;9.30;99.90
23323;DHT22;11833;52.554;13.554;2022-12-29T06:28:46;9.30;99.90
23323;DHT22;11833;52.554;13.554;2022-12-29T06:31:11;9.30;99.90
23323;DHT22;11833;52.554;13.554;2022-12-29T06:33:38;9.30;99.90
23323;DHT22;11833;52.554;13.554;2022-12-29T06:36:04;9.30;99.90
23323;DHT22;11833;52.554;13.554;2022-12-29T06:38:30;9.40;99.90
23323;DHT22;11833;52.554;13.554;2022-12-29T06:40:56;9.30;99.90
23323;DHT22;11833;52.554;13.554;2022-12-29T06:43:21;9.40;99.90
23323;DHT22;11833;52.554;13.554;2022-12-29T06:45:47;9.40;99.90
23323;DHT22;11833;52.554;13.554;2022-12-29T06:48:13;9.40;99.90
23323;DHT22;11833;52.554;13.554;2022-12-29T06:50:39;9.40;99.90
23323;DHT22;11833;52.554;13.554;2022-12-29T06:53:04;9.40;99.90
23323;DHT22;11833;52.554;13.554;2022-12-29T06:55:30;9.40;99.90
23323;DHT22;11833;52.554;13.554;2022-12-29T06:57:57;9.40;99.90
23323;DHT22;11833;52.554;13.554;2022-12-29T07:00:24;9.40;99.90
23323;DHT22;11833;52.554;13.554;2022-12-29T07:02:50;9.40;99.90
23323;DHT22;11833;52.554;13.554;2022-12-29T07:05:16;9.40;99.90
23323;DHT22;11833;52.554;13.554;2022-12-29T07:07:42;9.50;99.90
23323;DHT22;11833;52.554;13.554;2022-12-29T07:10:08;9.40;99.90
23323;DHT22;11833;52.554;13.554;2022-12-29T07:12:34;9.40;99.90
23323;DHT22;11833;52.554;13.554;2022-12-29T07:15:00;9.50;99.90
23323;DHT22;11833;52.554;13.554;2022-12-29T07:17:25;9.40;99.90
23323;DHT22;11833;52.554;13.554;2022-12-29T07:19:51;9.40;99.90
23323;DHT22;11833;52.554;13.554;2022-12-29T07:22:17;9.40;99.90
23323;DHT22;11833;52.554;13.554;2022-12-29T07:24:42;9.40;99.90
23323;DHT22;11833;52.554;13.554;2022-12-29T07:27:08;9.40;99.90
23323;DHT22;11833;52.554;13.554;2022-12-29T07:29:36;9.40;99.90
23323;DHT22;11833;52.554;13.554;2022-12-29T07:32:03;9.40;99.90
23323;DHT22;11833;52.554;13.554;2022-12-29T07:34:29;9.50;99.90
23323;DHT22;11833;52.554;13.554;2022-12-29T07:36:55;9.50;99.90
23323;DHT22;11833;52.554;13.554;2022-12-29T07:39:20;9.50;99.90
23323;DHT22;11833;52.554;13.554;2022-12-29T07:41:46;9.50;99.90
23323;DHT22;11833;52.554;13.554;2022-12-29T07:44:12;9.50;99.90
23323;DHT22;11833;52.554;13.554;2022-12-29T07:46:38;9.60;99.90
23323;DHT22;11833;52.554;13.554;2022-12-29T07:49:03;9.60;99.90
23323;DHT22;11833;52.554;13.554;2022-12-29T07:51:29;9.60;99.90
23323;DHT22;11833;52.554;13.554;2022-12-29T07:53:56;9.60;99.90
23323;DHT22;11833;52.554;13.554;2022-12-29T07:56:24;9.60;99.90
23323;DHT22;11833;52.554;13.554;2022-12-29T07:58:50;9.70;99.90
23323;DHT22;11833;52.554;13.554;2022-12-29T08:01:16;9.70;99.90
23323;DHT22;11833;52.554;13.554;2022-12-29T08:03:41;9.80;99.90
23323;DHT22;11833;52.554;13.554;2022-12-29T08:06:09;9.80;99.90
23323;DHT22;11833;52.554;13.554;2022-12-29T08:08:36;9.90;99.90
23323;DHT22;11833;52.554;13.554;2022-12-29T08:11:02;9.90;99.90
23323;DHT22;11833;52.554;13.554;2022-12-29T08:13:28;9.90;99.90
23323;DHT22;11833;52.554;13.554;2022-12-29T08:15:53;9.90;99.90
23323;DHT22;11833;52.554;13.554;2022-12-29T08:18:19;10.00;99.90
23323;DHT22;11833;52.554;13.554;2022-12-29T08:20:45;10.00;99.90
23323;DHT22;11833;52.554;13.554;2022-12-29T08:23:10;10.10;99.90
23323;DHT22;11833;52.554;13.554;2022-12-29T08:25:36;10.30;99.90
23323;DHT22;11833;52.554;13.554;2022-12-29T08:28:02;10.20;99.90
23323;DHT22;11833;52.554;13.554;2022-12-29T08:30:28;10.20;99.90
23323;DHT22;11833;52.554;13.554;2022-12-29T08:32:53;10.10;99.90
23323;DHT22;11833;52.554;13.554;2022-12-29T08:35:19;10.10;99.90
23323;DHT22;11833;52.554;13.554;2022-12-29T08:37:45;10.10;99.90
23323;DHT22;11833;52.554;13.554;2022-12-29T08:40:11;10.10;99.90
23323;DHT22;11833;52.554;13.554;2022-12-29T08:42:36;10.10;99.90
23323;DHT22;11833;52.554;13.554;2022-12-29T08:45:02;10.10;99.90
23323;DHT22;11833;52.554;13.554;2022-12-29T08:47:29;10.10;99.90
23323;DHT22;11833;52.554;13.554;2022-12-29T08:49:54;10.20;99.90
23323;DHT22;11833;52.554;13.554;2022-12-29T08:52:20;10.10;99.90
23323;DHT22;11833;52.554;13.554;2022-12-29T08:54:46;10.20;99.90
23323;DHT22;11833;52.554;13.554;2022-12-29T08:57:12;10.20;99.90
23323;DHT22;11833;52.554;13.554;2022-12-29T08:59:37;10.10;99.90
23323;DHT22;11833;52.554;13.554;2022-12-29T09:02:03;10.20;99.90
23323;DHT22;11833;52.554;13.554;2022-12-29T09:04:29;10.30;99.90
23323;DHT22;11833;52.554;13.554;2022-12-29T09:06:55;10.50;99.90
23323;DHT22;11833;52.554;13.554;2022-12-29T09:09:21;10.60;99.90
23323;DHT22;11833;52.554;13.554;2022-12-29T09:11:46;10.90;99.90
23323;DHT22;11833;52.554;13.554;2022-12-29T09:14:13;10.90;99.90
23323;DHT22;11833;52.554;13.554;2022-12-29T09:16:39;10.90;99.90
23323;DHT22;11833;52.554;13.554;2022-12-29T09:19:24;11.00;99.90
23323;DHT22;11833;52.554;13.554;2022-12-29T09:21:50;11.10;99.90
23323;DHT22;11833;52.554;13.554;2022-12-29T09:24:15;11.30;99.90
23323;DHT22;11833;52.554;13.554;2022-12-29T09:26:41;11.50;99.90
23323;DHT22;11833;52.554;13.554;2022-12-29T09:29:07;11.90;99.90
23323;DHT22;11833;52.554;13.554;2022-12-29T09:31:32;12.60;99.90
23323;DHT22;11833;52.554;13.554;2022-12-29T09:33:58;12.60;99.90
23323;DHT22;11833;52.554;13.554;2022-12-29T09:36:24;12.70;99.90
23323;DHT22;11833;52.554;13.554;2022-12-29T09:38:50;12.80;99.90
23323;DHT22;11833;52.554;13.554;2022-12-29T09:41:29;12.80;99.90
23323;DHT22;11833;52.554;13.554;2022-12-29T09:46:49;12.50;99.90
23323;DHT22;11833;52.554;13.554;2022-12-29T09:49:42;12.40;99.90
23323;DHT22;11833;52.554;13.554;2022-12-29T09:52:20;12.30;99.90
23323;DHT22;11833;52.554;13.554;2022-12-29T10:00:17;12.70;99.90
23323;DHT22;11833;52.554;13.554;2022-12-29T10:03:02;12.90;99.90
23323;DHT22;11833;52.554;13.554;2022-12-29T10:06:06;13.50;99.90
23323;DHT22;11833;52.554;13.554;2022-12-29T10:20:18;12.50;99.90
23323;DHT22;11833;52.554;13.554;2022-12-29T10:25:57;12.80;99.90
23323;DHT22;11833;52.554;13.554;2022-12-29T10:31:48;12.30;99.90
23323;DHT22;11833;52.554;13.554;2022-12-29T10:34:21;12.90;99.90
23323;DHT22;11833;52.554;13.554;2022-12-29T10:36:52;13.10;99.90
23323;DHT22;11833;52.554;13.554;2022-12-29T10:39:37;13.20;99.90
23323;DHT22;11833;52.554;13.554;2022-12-29T10:44:50;13.60;99.90
23323;DHT22;11833;52.554;13.554;2022-12-29T10:47:23;14.30;99.90
23323;DHT22;11833;52.554;13.554;2022-12-29T10:49:51;14.60;99.90
23323;DHT22;11833;52.554;13.554;2022-12-29T10:52:19;14.90;99.90
23323;DHT22;11833;52.554;13.554;2022-12-29T10:58:14;14.70;99.90
23323;DHT22;11833;52.554;13.554;2022-12-29T11:04:33;14.70;99.90
23323;DHT22;11833;52.554;13.554;2022-12-29T11:07:16;14.10;99.90
23323;DHT22;11833;52.554;13.554;2022-12-29T11:09:44;13.60;99.90
23323;DHT22;11833;52.554;13.554;2022-12-29T11:15:11;13.40;99.90
23323;DHT22;11833;52.554;13.554;2022-12-29T11:17:52;13.50;99.90
23323;DHT22;11833;52.554;13.554;2022-12-29T11:22:55;13.20;99.90
23323;DHT22;11833;52.554;13.554;2022-12-29T11:25:21;13.00;99.90
23323;DHT22;11833;52.554;13.554;2022-12-29T11:27:57;12.90;99.90
23323;DHT22;11833;52.554;13.554;2022-12-29T11:30:30;12.80;99.90
23323;DHT22;11833;52.554;13.554;2022-12-29T11:36:44;12.70;99.90
23323;DHT22;11833;52.554;13.554;2022-12-29T11:39:37;12.60;99.90
23323;DHT22;11833;52.554;13.554;2022-12-29T11:42:14;12.60;99.90
23323;DHT22;11833;52.554;13.554;2022-12-29T11:44:44;12.60;99.90
23323;DHT22;11833;52.554;13.554;2022-12-29T11:47:20;12.60;99.90
23323;DHT22;11833;52.554;13.554;2022-12-29T11:49:58;12.40;99.90
23323;DHT22;11833;52.554;13.554;2022-12-29T11:52:31;12.40;99.90
23323;DHT22;11833;52.554;13.554;2022-12-29T11:55:02;12.20;99.90
23323;DHT22;11833;52.554;13.554;2022-12-29T11:57:32;12.10;99.90
23323;DHT22;11833;52.554;13.554;2022-12-29T12:00:22;12.10;99.90
23323;DHT22;11833;52.554;13.554;2022-12-29T12:02:54;12.20;99.90
23323;DHT22;11833;52.554;13.554;2022-12-29T12:05:43;12.10;99.90
23323;DHT22;11833;52.554;13.554;2022-12-29T12:11:33;12.00;99.90
23323;DHT22;11833;52.554;13.554;2022-12-29T12:14:43;11.90;99.90
23323;DHT22;11833;52.554;13.554;2022-12-29T12:17:16;11.70;99.90
23323;DHT22;11833;52.554;13.554;2022-12-29T12:19:57;11.70;99.90
23323;DHT22;11833;52.554;13.554;2022-12-29T12:22:40;11.50;99.90
23323;DHT22;11833;52.554;13.554;2022-12-29T12:25:21;11.30;99.90
23323;DHT22;11833;52.554;13.554;2022-12-29T12:28:24;10.90;99.90
23323;DHT22;11833;52.554;13.554;2022-12-29T12:30:57;10.80;99.90
23323;DHT22;11833;52.554;13.554;2022-12-29T12:33:35;10.70;99.90
23323;DHT22;11833;52.554;13.554;2022-12-29T12:39:02;10.50;99.90
23323;DHT22;11833;52.554;13.554;2022-12-29T12:52:40;10.50;99.90
23323;DHT22;11833;52.554;13.554;2022-12-29T13:01:31;10.50;99.90
23323;DHT22;11833;52.554;13.554;2022-12-29T13:07:10;10.50;99.90
23323;DHT22;11833;52.554;13.554;2022-12-29T13:09:53;10.50;99.90
23323;DHT22;11833;52.554;13.554;2022-12-29T13:18:31;11.60;99.90
23323;DHT22;11833;52.554;13.554;2022-12-29T13:26:51;12.20;99.90
23323;DHT22;11833;52.554;13.554;2022-12-29T13:29:29;12.40;99.90
23323;DHT22;11833;52.554;13.554;2022-12-29T13:37:34;12.40;99.90
23323;DHT22;11833;52.554;13.554;2022-12-29T13:40:13;11.90;99.90
23323;DHT22;11833;52.554;13.554;2022-12-29T13:42:42;11.80;99.90
23323;DHT22;11833;52.554;13.554;2022-12-29T13:45:19;11.50;99.90
23323;DHT22;11833;52.554;13.554;2022-12-29T13:47:57;11.80;99.90
23323;DHT22;11833;52.554;13.554;2022-12-29T13:50:29;11.40;99.90
23323;DHT22;11833;52.554;13.554;2022-12-29T13:58:30;11.70;99.90
23323;DHT22;11833;52.554;13.554;2022-12-29T14:03:47;11.50;99.90
23323;DHT22;11833;52.554;13.554;2022-12-29T14:06:26;11.50;99.90
23323;DHT22;11833;52.554;13.554;2022-12-29T14:09:04;11.50;99.90
23323;DHT22;11833;52.554;13.554;2022-12-29T14:11:35;11.40;99.90
23323;DHT22;11833;52.554;13.554;2022-12-29T14:14:24;11.50;99.90
23323;DHT22;11833;52.554;13.554;2022-12-29T14:16:52;11.40;99.90
23323;DHT22;11833;52.554;13.554;2022-12-29T14:19:26;11.40;99.90
23323;DHT22;11833;52.554;13.554;2022-12-29T14:21:57;11.20;99.90
23323;DHT22;11833;52.554;13.554;2022-12-29T14:34:51;10.80;99.90
23323;DHT22;11833;52.554;13.554;2022-12-29T14:42:53;11.00;99.90
23323;DHT22;11833;52.554;13.554;2022-12-29T14:47:48;11.10;99.90
23323;DHT22;11833;52.554;13.554;2022-12-29T14:50:21;11.00;99.90
23323;DHT22;11833;52.554;13.554;2022-12-29T14:55:46;10.90;99.90
23323;DHT22;11833;52.554;13.554;2022-12-29T14:58:37;10.70;99.90
23323;DHT22;11833;52.554;13.554;2022-12-29T15:01:26;10.60;99.90
23323;DHT22;11833;52.554;13.554;2022-12-29T15:04:15;10.60;99.90
23323;DHT22;11833;52.554;13.554;2022-12-29T15:06:41;10.70;99.90
23323;DHT22;11833;52.554;13.554;2022-12-29T15:09:22;10.70;99.90
23323;DHT22;11833;52.554;13.554;2022-12-29T15:11:59;10.50;99.90
23323;DHT22;11833;52.554;13.554;2022-12-29T15:14:47;10.70;99.90
23323;DHT22;11833;52.554;13.554;2022-12-29T15:17:36;10.60;99.90
23323;DHT22;11833;52.554;13.554;2022-12-29T15:20:24;10.50;99.90
23323;DHT22;11833;52.554;13.554;2022-12-29T15:23:03;10.50;99.90
23323;DHT22;11833;52.554;13.554;2022-12-29T15:25:35;10.50;99.90
23323;DHT22;11833;52.554;13.554;2022-12-29T15:28:04;10.50;99.90
23323;DHT22;11833;52.554;13.554;2022-12-29T15:30:31;10.50;99.90
23323;DHT22;11833;52.554;13.554;2022-12-29T15:32:57;10.30;99.90
23323;DHT22;11833;52.554;13.554;2022-12-29T15:35:32;10.20;99.90
23323;DHT22;11833;52.554;13.554;2022-12-29T15:38:00;10.00;99.90
23323;DHT22;11833;52.554;13.554;2022-12-29T15:40:39;9.80;99.90
23323;DHT22;11833;52.554;13.554;2022-12-29T15:45:43;9.70;99.90
23323;DHT22;11833;52.554;13.554;2022-12-29T15:48:17;9.60;99.90
23323;DHT22;11833;52.554;13.554;2022-12-29T15:50:44;9.50;99.90
23323;DHT22;11833;52.554;13.554;2022-12-29T15:53:14;9.40;99.90
23323;DHT22;11833;52.554;13.554;2022-12-29T15:55:44;9.60;99.90
23323;DHT22;11833;52.554;13.554;2022-12-29T15:58:24;9.60;99.90
23323;DHT22;11833;52.554;13.554;2022-12-29T16:00:57;9.50;99.90
23323;DHT22;11833;52.554;13.554;2022-12-29T16:03:26;9.50;99.90
23323;DHT22;11833;52.554;13.554;2022-12-29T16:05:56;9.50;99.90
23323;DHT22;11833;52.554;13.554;2022-12-29T16:08:33;9.50;99.90
23323;DHT22;11833;52.554;13.554;2022-12-29T16:11:07;9.50;99.90
23323;DHT22;11833;52.554;13.554;2022-12-29T16:13:47;9.40;99.90
23323;DHT22;11833;52.554;13.554;2022-12-29T16:16:18;9.50;99.90
23323;DHT22;11833;52.554;13.554;2022-12-29T16:18:45;9.50;99.90
23323;DHT22;11833;52.554;13.554;2022-12-29T16:21:21;9.50;99.90
23323;DHT22;11833;52.554;13.554;2022-12-29T16:23:53;9.60;99.90
23323;DHT22;11833;52.554;13.554;2022-12-29T16:26:22;9.60;99.90
23323;DHT22;11833;52.554;13.554;2022-12-29T16:28:53;9.60;99.90
23323;DHT22;11833;52.554;13.554;2022-12-29T16:39:47;9.60;99.90
23323;DHT22;11833;52.554;13.554;2022-12-29T16:50:20;9.70;99.90
23323;DHT22;11833;52.554;13.554;2022-12-29T16:52:49;9.60;99.90
23323;DHT22;11833;52.554;13.554;2022-12-29T16:55:18;9.60;99.90
23323;DHT22;11833;52.554;13.554;2022-12-29T16:57:47;9.60;99.90
23323;DHT22;11833;52.554;13.554;2022-12-29T17:00:21;9.70;99.90
23323;DHT22;11833;52.554;13.554;2022-12-29T17:02:54;9.70;99.90
23323;DHT22;11833;52.554;13.554;2022-12-29T17:05:22;9.60;99.90
23323;DHT22;11833;52.554;13.554;2022-12-29T17:07:49;9.70;99.90
23323;DHT22;11833;52.554;13.554;2022-12-29T17:10:16;9.70;99.90
23323;DHT22;11833;52.554;13.554;2022-12-29T17:12:44;9.70;99.90
23323;DHT22;11833;52.554;13.554;2022-12-29T17:15:18;9.70;99.90
23323;DHT22;11833;52.554;13.554;2022-12-29T17:17:49;9.60;99.90
23323;DHT22;11833;52.554;13.554;2022-12-29T17:22:45;9.60;99.90
23323;DHT22;11833;52.554;13.554;2022-12-29T17:25:13;9.70;99.90
23323;DHT22;11833;52.554;13.554;2022-12-29T17:27:53;9.70;99.90
23323;DHT22;11833;52.554;13.554;2022-12-29T17:30:25;9.60;99.90
23323;DHT22;11833;52.554;13.554;2022-12-29T17:35:21;9.90;99.90
23323;DHT22;11833;52.554;13.554;2022-12-29T17:37:47;9.90;99.90
23323;DHT22;11833;52.554;13.554;2022-12-29T17:40:31;9.90;99.90
23323;DHT22;11833;52.554;13.554;2022-12-29T17:42:58;9.90;99.90
23323;DHT22;11833;52.554;13.554;2022-12-29T17:45:29;10.00;99.90
23323;DHT22;11833;52.554;13.554;2022-12-29T17:47:56;10.00;99.90
23323;DHT22;11833;52.554;13.554;2022-12-29T17:50:27;10.10;99.90
23323;DHT22;11833;52.554;13.554;2022-12-29T17:52:59;10.00;99.90
23323;DHT22;11833;52.554;13.554;2022-12-29T17:55:28;10.00;99.90
23323;DHT22;11833;52.554;13.554;2022-12-29T17:57:54;10.00;99.90
23323;DHT22;11833;52.554;13.554;2022-12-29T18:00:28;10.00;99.90
23323;DHT22;11833;52.554;13.554;2022-12-29T18:02:56;10.00;99.90
23323;DHT22;11833;52.554;13.554;2022-12-29T18:05:28;10.00;99.90
23323;DHT22;11833;52.554;13.554;2022-12-29T18:07:57;10.00;99.90
23323;DHT22;11833;52.554;13.554;2022-12-29T18:10:25;10.00;99.90
23323;DHT22;11833;52.554;13.554;2022-12-29T18:12:54;10.00;99.90
23323;DHT22;11833;52.554;13.554;2022-12-29T18:15:25;10.00;99.90
23323;DHT22;11833;52.554;13.554;2022-12-29T18:18:00;10.00;99.90
23323;DHT22;11833;52.554;13.554;2022-12-29T18:20:28;10.00;99.90
23323;DHT22;11833;52.554;13.554;2022-12-29T18:22:57;10.00;99.90
23323;DHT22;11833;52.554;13.554;2022-12-29T18:25:43;9.90;99.90
23323;DHT22;11833;52.554;13.554;2022-12-29T18:28:12;9.90;99.90
23323;DHT22;11833;52.554;13.554;2022-12-29T18:30:37;9.90;99.90
23323;DHT22;11833;52.554;13.554;2022-12-29T18:33:03;9.90;99.90
23323;DHT22;11833;52.554;13.554;2022-12-29T18:35:41;9.80;99.90
23323;DHT22;11833;52.554;13.554;2022-12-29T18:38:09;9.80;99.90
23323;DHT22;11833;52.554;13.554;2022-12-29T18:40:36;9.80;99.90
23323;DHT22;11833;52.554;13.554;2022-12-29T18:43:02;9.70;99.90
23323;DHT22;11833;52.554;13.554;2022-12-29T18:45:31;9.80;99.90
23323;DHT22;11833;52.554;13.554;2022-12-29T18:47:58;9.80;99.90
23323;DHT22;11833;52.554;13.554;2022-12-29T18:50:25;9.70;99.90
23323;DHT22;11833;52.554;13.554;2022-12-29T18:52:51;9.70;99.90
23323;DHT22;11833;52.554;13.554;2022-12-29T18:55:21;9.80;99.90
23323;DHT22;11833;52.554;13.554;2022-12-29T18:57:49;9.70;99.90
23323;DHT22;11833;52.554;13.554;2022-12-29T19:00:17;9.70;99.90
23323;DHT22;11833;52.554;13.554;2022-12-29T19:02:44;9.80;99.90
23323;DHT22;11833;52.554;13.554;2022-12-29T19:05:25;9.80;99.90
23323;DHT22;11833;52.554;13.554;2022-12-29T19:07:52;9.70;99.90
23323;DHT22;11833;52.554;13.554;2022-12-29T19:10:20;9.80;99.90
23323;DHT22;11833;52.554;13.554;2022-12-29T19:12:48;9.80;99.90
23323;DHT22;11833;52.554;13.554;2022-12-29T19:17:57;9.80;99.90
23323;DHT22;11833;52.554;13.554;2022-12-29T19:20:41;9.80;99.90
23323;DHT22;11833;52.554;13.554;2022-12-29T19:23:12;9.80;99.90
23323;DHT22;11833;52.554;13.554;2022-12-29T19:25:40;9.80;99.90
23323;DHT22;11833;52.554;13.554;2022-12-29T19:28:08;9.70;99.90
23323;DHT22;11833;52.554;13.554;2022-12-29T19:30:40;9.70;99.90
23323;DHT22;11833;52.554;13.554;2022-12-29T19:33:05;9.60;99.90
23323;DHT22;11833;52.554;13.554;2022-12-29T19:35:31;9.70;99.90
23323;DHT22;11833;52.554;13.554;2022-12-29T19:37:57;9.70;99.90
23323;DHT22;11833;52.554;13.554;2022-12-29T19:40:24;9.60;99.90
23323;DHT22;11833;52.554;13.554;2022-12-29T19:42:51;9.60;99.90
23323;DHT22;11833;52.554;13.554;2022-12-29T19:45:17;9.50;99.90
23323;DHT22;11833;52.554;13.554;2022-12-29T19:47:43;9.50;99.90
23323;DHT22;11833;52.554;13.554;2022-12-29T19:50:11;9.40;99.90
23323;DHT22;11833;52.554;13.554;2022-12-29T19:52:38;9.30;99.90
23323;DHT22;11833;52.554;13.554;2022-12-29T19:55:04;9.40;99.90
23323;DHT22;11833;52.554;13.554;2022-12-29T19:57:31;9.40;99.90
23323;DHT22;11833;52.554;13.554;2022-12-29T19:59:56;9.30;99.90